Latest Coastal Weather Observations for Melbourne (Olympic Park)

IDV60701

Issued at 3:32 am EST Thursday 29 June 2017 (issued every 10 minutes, with the page automatically refreshed every 10 minutes)

About coastal observations | Map of coastal stations | Coastal observations for VIC | Marine services | Other Formats
Station Details ID: 086338 Name: MELBOURNE (OLYMPIC PARK) Lat: -37.83 Lon: 144.98 Height: 7.53 m
Data from the previous 72 hours. | See also: Recent months at Melbourne (Olympic Park)
Date/Time
EST
Temp
°C
Wind Pressure Rain since
9am
mm
Weather Cloud Vis
km
Sea
Height
m
Swell
Dir  Spd
kts
Gust
kts
hPa Trend Height
m
Period
s
Dir
29/03:30am 10.6 N 5 7 1021.7 - 0.0 - - 10 - - - -
29/03:00am 10.6 N 5 8 1021.8 - 0.0 - - 10 - - - -
29/02:30am 10.7 N 5 7 1022.1 - 0.0 - - 10 - - - -
29/02:00am 10.7 N 6 9 1022.2 - 0.0 - - 10 - - - -
29/01:30am 10.5 N 5 7 1022.2 - 0.0 - - 10 - - - -
29/01:00am 10.4 N 5 7 1022.3 - 0.0 - - 10 - - - -
29/12:30am 10.0 N 4 7 1022.6 - 0.0 - - 10 - - - -
29/12:00am 9.5 NE 5 6 1022.8 - 0.0 - - 10 - - - -
 
Date/Time
EST
Temp
°C
Wind Pressure Rain since
9am
mm
Weather Cloud Vis
km
Sea
Height
m
Swell
Dir  Spd
kts
Gust
kts
hPa Trend Height
m
Period
s
Dir
28/11:30pm 9.3 NE 6 7 1022.9 - 0.0 - - 10 - - - -
28/11:00pm 9.3 NE 6 7 1023.0 - 0.0 - - 10 - - - -
28/10:30pm 10.2 NNE 5 7 1022.9 - 0.0 - - 10 - - - -
28/10:00pm 10.2 N 4 7 1023.0 - 0.0 - - 10 - - - -
28/09:30pm 10.5 N 4 7 1023.0 - 0.0 - - 10 - - - -
28/09:00pm 10.8 N 4 6 1022.9 - 0.0 - - 10 - - - -
28/08:30pm 11.3 N 5 6 1022.9 - 0.0 - - 10 - - - -
28/08:00pm 11.9 N 6 8 1022.8 - 0.0 - - 10 - - - -
28/07:30pm 12.3 N 6 8 1022.7 - 0.0 - - 10 - - - -
28/07:00pm 12.3 N 5 8 1022.6 - 0.0 - - 10 - - - -
28/06:30pm 12.6 N 7 10 1022.4 - 0.0 - - 10 - - - -
28/06:00pm 12.9 N 5 8 1022.2 - 0.0 - - 10 - - - -
28/05:30pm 13.2 N 5 9 1022.0 - 0.0 - - 10 - - - -
28/05:00pm 13.7 N 5 8 1021.9 - 0.0 - - 10 - - - -
28/04:30pm 13.9 N 5 7 1021.9 - 0.0 - - 10 - - - -
28/04:00pm 14.0 N 5 7 1021.9 - 0.0 - - 10 - - - -
28/03:30pm 13.9 NNE 6 8 1021.9 - 0.0 - - 10 - - - -
28/03:00pm 13.9 N 5 7 1021.9 - 0.0 - - 10 - - - -
28/02:30pm 13.9 N 6 11 1021.8 - 0.0 - - 10 - - - -
28/02:00pm 13.7 NNE 6 9 1022.0 - 0.0 - - 10 - - - -
28/01:30pm 13.5 N 4 6 1022.4 - 0.0 - - 10 - - - -
28/01:00pm 13.4 N 5 8 1022.6 - 0.0 - - 10 - - - -
28/12:30pm 13.2 N 6 9 1022.8 - 0.0 - - 10 - - - -
28/12:00pm 12.7 N 7 11 1023.1 - 0.0 - - 10 - - - -
28/11:30am 12.0 NNE 6 9 1023.5 - 0.0 - - 10 - - - -
28/11:00am 11.3 NNE 7 11 1023.6 - 0.0 - - 10 - - - -
28/10:30am 10.6 NNE 5 9 1024.0 - 0.0 - - 10 - - - -
28/10:00am 10.0 NE 5 8 1024.0 - 0.0 - - 10 - - - -
28/09:30am 9.7 NE 5 7 1023.9 - 0.0 - - 10 - - - -
28/09:00am 9.3 NE 5 7 1023.9 - 0.0 - - 10 - - - -
28/08:30am 8.9 NNE 5 7 1023.6 - 0.0 - - 10 - - - -
28/08:00am 8.8 NNE 5 7 1023.3 - 0.0 - - 10 - - - -
28/07:30am 8.7 NNE 4 7 1023.0 - 0.0 - - 10 - - - -
28/07:00am 9.0 NE 4 6 1023.1 - 0.0 - - 10 - - - -
28/06:30am 9.2 NE 5 7 1023.0 - 0.0 - - 10 - - - -
28/06:00am 9.3 N 6 8 1022.8 - 0.0 - - 10 - - - -
28/05:30am 9.2 NNE 5 8 1022.8 - 0.0 - - 10 - - - -
28/05:00am 9.2 N 5 8 1022.8 - 0.0 - - 10 - - - -
28/04:30am 9.1 NNE 5 7 1023.0 - 0.0 - - 10 - - - -
28/04:00am 9.2 N 6 9 1023.1 - 0.0 - - 10 - - - -
28/03:30am 9.0 N 5 7 1023.3 - 0.0 - - 10 - - - -
28/03:00am 9.1 N 5 8 1023.5 - 0.0 - - 10 - - - -
28/02:30am 9.0 NNE 5 7 1023.2 - 0.0 - - 10 - - - -
28/02:00am 9.4 NNE 7 11 1022.9 - 0.0 - - 10 - - - -
28/01:30am 9.2 NNE 6 8 1023.3 - 0.0 - - 10 - - - -
28/01:00am 9.2 NNE 7 8 1023.4 - 0.0 - - 10 - - - -
28/12:30am 9.0 N 5 9 1023.5 - 0.0 - - 10 - - - -
28/12:00am 8.9 N 6 10 1023.6 - 0.0 - - 10 - - - -
 
Date/Time
EST
Temp
°C
Wind Pressure Rain since
9am
mm
Weather Cloud Vis
km
Sea
Height
m
Swell
Dir  Spd
kts
Gust
kts
hPa Trend Height
m
Period
s
Dir
27/11:30pm 9.2 N 7 13 1023.6 - 0.0 - - 10 - - - -
27/11:00pm 9.3 N 7 11 1023.8 - 0.0 - - 10 - - - -
27/10:30pm 9.6 N 8 12 1023.9 - 0.0 - - 10 - - - -
27/10:00pm 9.7 N 7 11 1023.7 - 0.0 - - 10 - - - -
27/09:30pm 9.8 N 6 8 1023.8 - 0.0 - - 10 - - - -
27/09:00pm 10.0 N 7 11 1023.8 - 0.0 - - 10 - - - -
27/08:30pm 10.1 N 7 10 1023.8 - 0.0 - - 10 - - - -
27/08:00pm 10.3 N 8 12 1024.0 - 0.0 - - 10 - - - -
27/07:30pm 10.6 N 7 11 1023.8 - 0.0 - - 10 - - - -
27/07:00pm 10.6 N 6 10 1023.8 - 0.0 - - 10 - - - -
27/06:30pm 10.6 NNE 4 8 1023.7 - 0.0 - - 10 - - - -
27/06:00pm 10.5 N 6 8 1023.8 - 0.0 - - 10 - - - -
27/05:30pm 10.6 N 8 11 1023.8 - 0.0 - - 10 - - - -
27/05:00pm 10.8 N 8 12 1023.8 - 0.0 - - 10 - - - -
27/04:30pm 11.0 N 6 9 1023.7 - 0.0 - - 10 - - - -
27/04:00pm 11.1 N 5 8 1023.8 - 0.0 - - 10 - - - -
27/03:30pm 10.9 N 7 10 1023.9 - 0.0 - - 10 - - - -
27/03:00pm 11.0 N 8 12 1024.0 - 0.0 - - 10 - - - -
27/02:30pm 11.4 N 7 10 1024.0 - 0.0 - - 10 - - - -
27/02:00pm 11.7 NNW 6 9 1024.1 - 0.0 - - 10 - - - -
27/01:30pm 11.9 NNW 7 10 1024.2 - 0.0 - - 10 - - - -
27/01:00pm 11.5 NE 4 7 1024.4 - 0.0 - - 10 - - - -
27/12:30pm 10.9 NNE 5 6 1024.8 - 0.0 - - 10 - - - -
27/12:00pm 9.6 NNE 5 6 1025.1 - 0.0 - - 10 - - - -
27/11:30am 8.9 NNE 5 7 1025.6 - 0.0 - - 10 - - - -
27/11:00am 8.3 NNE 5 8 1026.1 - 0.0 - - 10 - - - -
27/10:30am 7.9 NNE 6 9 1026.2 - 0.0 - - 10 - - - -
27/10:00am 7.7 NNE 5 8 1025.9 - 0.0 - - 10 - - - -
27/09:30am 6.9 NNE 7 11 1025.9 - 0.0 - - 10 - - - -
27/09:00am 7.0 NNE 5 7 1026.0 - 0.0 - - 10 - - - -
27/08:30am 6.5 NE 5 8 1026.0 - 0.0 - - 10 - - - -
27/08:00am 6.2 NNE 5 7 1026.1 - 0.0 - - 10 - - - -
27/07:30am 6.1 NNE 7 9 1025.9 - 0.0 - - 10 - - - -
27/07:00am 6.3 NNE 6 10 1025.8 - 0.0 - - 10 - - - -
27/06:30am 6.8 NNE 6 8 1025.6 - 0.0 - - 10 - - - -
27/06:00am 6.9 NNE 6 9 1025.5 - 0.0 - - 10 - - - -
27/05:30am 7.0 NNE 5 7 1025.5 - 0.0 - - 10 - - - -
27/05:00am 7.5 NE 4 6 1025.5 - 0.0 - - 10 - - - -
27/04:30am 7.7 NNE 5 6 1025.6 - 0.0 - - 10 - - - -
27/04:00am 8.3 NE 4 6 1025.8 - 0.0 - - 10 - - - -
27/03:30am 8.6 NNE 4 7 1025.9 - 0.0 - - 10 - - - -
27/03:00am 9.0 ENE 1 4 1025.8 - 0.0 - - 10 - - - -
27/02:30am 9.2 E 2 4 1026.0 - 0.0 - - 10 - - - -
27/02:00am 9.4 NE 3 5 1025.9 - 0.0 - - 10 - - - -
27/01:30am 9.3 ENE 1 3 1025.7 - 0.0 - - 10 - - - -
27/01:00am 8.9 CALM 0 0 1025.5 - 0.0 - - 10 - - - -
27/12:30am 8.9 CALM 0 0 1025.6 - 0.0 - - 10 - - - -
27/12:00am 9.7 NE 3 5 1025.8 - 0.0 - - 10 - - - -
 
Date/Time
EST
Temp
°C
Wind Pressure Rain since
9am
mm
Weather Cloud Vis
km
Sea
Height
m
Swell
Dir  Spd
kts
Gust
kts
hPa Trend Height
m
Period
s
Dir
26/11:30pm 10.1 NNE 4 5 1025.9 - 0.0 - - 10 - - - -
26/11:00pm 9.4 ENE 1 4 1026.1 - 0.0 - - 10 - - - -
26/10:30pm 9.6 CALM 0 0 1026.1 - 0.0 - - 10 - - - -
26/10:00pm 10.3 CALM 0 0 1026.1 - 0.0 - - 10 - - - -
26/09:30pm 10.4 E 1 3 1026.1 - 0.0 - - 10 - - - -
26/09:00pm 10.5 CALM 0 0 1026.3 - 0.0 - - 10 - - - -
26/08:30pm 10.6 CALM 0 0 1026.2 - 0.0 - - 10 - - - -
26/08:00pm 10.3 CALM 0 0 1026.0 - 0.0 - - 10 - - - -
26/07:30pm 10.2 CALM 0 0 1025.9 - 0.0 - - 10 - - - -
26/07:00pm 10.4 CALM 0 0 1025.8 - 0.0 - - 10 - - - -
26/06:30pm 10.0 CALM 0 0 1025.5 - 0.0 - - 10 - - - -
26/06:00pm 10.0 CALM 0 0 1025.3 - 0.0 - - 10 - - - -
26/05:30pm 10.0 CALM 0 0 1024.9 - 0.0 - - 10 - - - -
26/05:00pm 10.2 CALM 0 0 1024.6 - 0.0 - - 10 - - - -
26/04:30pm 11.2 SSW 1 3 1024.4 - 0.0 - - 10 - - - -
26/04:00pm 11.7 S 1 4 1024.4 - 0.0 - - 10 - - - -
26/03:30pm 12.0 SSW 3 5 1024.2 - 0.0 - - 10 - - - -
26/03:00pm 12.1 SW 4 6 1024.1 - 0.0 - - 10 - - - -
26/02:30pm 11.8 S 4 7 1024.0 - 0.0 - - 10 - - - -
26/02:00pm 11.8 S 4 6 1023.9 - 0.0 - - 10 - - - -
26/01:30pm 11.4 SSW 5 8 1024.0 - 0.0 - - 10 - - - -
26/01:00pm 11.8 S 5 7 1024.1 - 0.0 - - 10 - - - -
26/12:30pm 11.7 S 5 8 1024.2 - 0.0 - - 10 - - - -
26/12:00pm 12.0 WSW 5 11 1024.4 - 0.0 - - 10 - - - -
26/11:30am 11.8 SW 5 8 1024.4 - 0.0 - - 10 - - - -
26/11:00am 11.8 WSW 4 7 1024.4 - 0.0 - - 10 - - - -
26/10:30am 11.2 WSW 5 9 1024.4 - 0.0 - - 10 - - - -
26/10:00am 10.8 WNW 4 6 1024.2 - 0.0 - - 10 - - - -
26/09:30am 9.9 W 5 9 1023.8 - 0.0 - - 10 - - - -
26/09:00am 10.0 W 4 8 1023.3 - 1.4 - - 10 - - - -
26/08:30am 9.2 WNW 3 6 1022.8 - 1.4 - - 10 - - - -
26/08:00am 9.0 W 4 9 1022.4 - 1.4 - - 10 - - - -
26/07:30am 8.9 WNW 1 4 1022.1 - 1.4 - - 10 - - - -
26/07:00am 9.3 SW 2 7 1021.8 - 1.4 - - 10 - - - -
26/06:30am 9.4 WSW 3 7 1021.4 - 1.4 - - 10 - - - -
26/06:00am 9.3 W 3 7 1020.9 - 1.4 - - 10 - - - -
26/05:30am 9.4 W 3 7 1020.7 - 1.4 - - 10 - - - -
26/05:00am 9.4 WNW 2 5 1020.5 - 1.4 - - 10 - - - -
26/04:30am 9.4 W 3 5 1020.3 - 1.4 - - 10 - - - -
26/04:00am 10.0 W 2 6 1019.9 - 1.4 - - 10 - - - -

Other Formats:

Comma delimited format used in spreadsheet applications
http://www.bom.gov.au/fwo/IDV60701/IDV60701.95936.axf

JavaScript Object Notation format (JSON) in row-major order
http://www.bom.gov.au/fwo/IDV60701/IDV60701.95936.json